createdAt,value
2022-11-04T00:01:34.942Z,0.00
2022-11-04T00:04:01.853Z,0.00
2022-11-04T00:06:28.906Z,0.00
2022-11-04T00:08:58.066Z,0.10
2022-11-04T00:11:45.879Z,0.40
2022-11-04T00:14:14.228Z,0.20
2022-11-04T00:17:00.166Z,0.00
2022-11-04T00:19:27.477Z,0.20
2022-11-04T00:22:13.927Z,1.08
2022-11-04T00:24:43.811Z,0.73
2022-11-04T00:27:31.781Z,0.35
2022-11-04T00:30:01.288Z,2.83
2022-11-04T00:32:46.696Z,0.52
2022-11-04T00:35:14.247Z,3.00
2022-11-04T00:37:43.215Z,0.00
2022-11-04T00:40:12.785Z,0.00
2022-11-04T00:42:40.758Z,0.00
2022-11-04T00:45:08.624Z,0.00
2022-11-04T00:47:35.639Z,0.00
2022-11-04T00:50:02.738Z,0.00
2022-11-04T00:52:29.688Z,0.00
2022-11-04T00:54:56.724Z,1.05
2022-11-04T00:57:23.604Z,0.00
2022-11-04T00:59:50.636Z,0.00
2022-11-04T01:02:17.731Z,0.10
2022-11-04T01:04:44.726Z,0.00
2022-11-04T01:07:11.613Z,0.00
2022-11-04T01:09:38.769Z,0.00
2022-11-04T01:12:08.579Z,0.00
2022-11-04T01:14:35.752Z,0.00
2022-11-04T01:17:02.995Z,0.00
2022-11-04T01:19:30.051Z,0.10
2022-11-04T01:21:57.155Z,0.70
2022-11-04T01:24:24.314Z,0.00
2022-11-04T01:26:51.244Z,0.10
2022-11-04T01:29:18.170Z,0.00
2022-11-04T01:31:45.154Z,0.00
2022-11-04T01:34:12.069Z,6.50
2022-11-04T01:36:39.248Z,6.38
2022-11-04T01:39:06.266Z,3.92
2022-11-04T01:41:34.568Z,5.72
2022-11-04T01:44:04.789Z,5.90
2022-11-04T01:46:38.292Z,4.78
2022-11-04T01:49:28.855Z,6.30
2022-11-04T01:52:11.049Z,9.55
2022-11-04T01:54:40.856Z,6.43
2022-11-04T01:57:15.060Z,6.95
2022-11-04T01:59:43.027Z,7.65
2022-11-04T02:02:10.526Z,5.90
2022-11-04T02:04:39.709Z,5.68
2022-11-04T02:07:09.834Z,7.32
2022-11-04T02:09:38.722Z,4.43
2022-11-04T02:12:24.995Z,7.80
2022-11-04T02:14:54.217Z,7.20
2022-11-04T02:17:47.721Z,4.45
2022-11-04T02:20:31.022Z,6.78
2022-11-04T02:23:16.505Z,5.72
2022-11-04T02:26:01.972Z,5.80
2022-11-04T02:29:27.642Z,6.32
2022-11-04T02:32:10.686Z,7.75
2022-11-04T02:37:38.709Z,4.40
2022-11-04T02:40:17.052Z,6.07
2022-11-04T02:42:54.004Z,7.55
2022-11-04T02:45:48.501Z,6.45
2022-11-04T02:48:36.748Z,4.60
2022-11-04T02:51:22.736Z,6.93
2022-11-04T02:54:12.786Z,5.97
2022-11-04T02:56:46.189Z,8.13
2022-11-04T02:59:39.066Z,5.95
2022-11-04T03:02:11.448Z,6.35
2022-11-04T03:04:43.666Z,7.63
2022-11-04T03:07:15.244Z,6.97
2022-11-04T03:09:49.930Z,8.38
2022-11-04T03:12:24.150Z,5.50
2022-11-04T03:15:05.571Z,7.07
2022-11-04T03:17:47.852Z,6.85
2022-11-04T03:20:23.578Z,4.75
2022-11-04T03:22:50.925Z,6.05
2022-11-04T03:25:18.034Z,5.50
2022-11-04T03:28:04.444Z,5.85
2022-11-04T03:30:42.935Z,6.47
2022-11-04T03:33:34.326Z,4.72
2022-11-04T03:36:03.231Z,11.63
2022-11-04T03:38:30.841Z,7.55
2022-11-04T03:41:01.986Z,6.97
2022-11-04T03:43:30.872Z,7.70
2022-11-04T03:45:58.316Z,6.40
2022-11-04T03:48:25.681Z,7.93
2022-11-04T03:50:53.207Z,6.80
2022-11-04T03:56:21.571Z,6.80
2022-11-04T03:59:04.687Z,4.63
2022-11-04T04:01:50.068Z,6.10
2022-11-04T04:04:20.094Z,8.98
2022-11-04T04:06:52.106Z,6.00
2022-11-04T04:09:27.170Z,5.85
2022-11-04T04:12:19.964Z,6.22
2022-11-04T04:14:51.955Z,6.35
2022-11-04T04:17:43.291Z,9.20
2022-11-04T04:20:18.667Z,11.20
2022-11-04T04:23:49.650Z,7.22
2022-11-04T04:26:38.943Z,7.32
2022-11-04T04:29:09.128Z,6.85
2022-11-04T04:31:50.530Z,7.72
2022-11-04T04:34:21.526Z,6.72
2022-11-04T04:37:00.609Z,7.00
2022-11-04T04:40:11.369Z,5.03
2022-11-04T04:42:57.890Z,5.25
2022-11-04T04:45:33.997Z,5.03
2022-11-04T04:48:01.617Z,6.97
2022-11-04T04:50:37.762Z,5.18
2022-11-04T04:53:05.205Z,5.38
2022-11-04T04:55:36.189Z,5.38
2022-11-04T04:58:06.089Z,10.18
2022-11-04T05:00:34.143Z,6.03
2022-11-04T05:03:01.159Z,8.88
2022-11-04T05:05:28.519Z,8.57
2022-11-04T05:07:55.741Z,8.20
2022-11-04T05:10:22.825Z,5.85
2022-11-04T05:13:08.391Z,7.80
2022-11-04T05:15:35.604Z,8.68
2022-11-04T05:18:03.762Z,8.65
2022-11-04T05:20:34.301Z,11.05
2022-11-04T05:23:02.597Z,8.02
2022-11-04T05:25:30.073Z,8.57
2022-11-04T05:28:01.126Z,7.97
2022-11-04T05:30:29.139Z,6.47
2022-11-04T05:32:59.907Z,6.03
2022-11-04T05:35:30.966Z,6.25
2022-11-04T05:37:58.344Z,6.95
2022-11-04T05:40:26.007Z,6.18
2022-11-04T05:42:53.393Z,5.95
2022-11-04T05:45:20.509Z,7.43
2022-11-04T05:47:47.781Z,6.93
2022-11-04T05:50:15.155Z,8.40
2022-11-04T05:52:42.828Z,4.22
2022-11-04T05:55:10.283Z,8.05
2022-11-04T05:57:38.426Z,7.15
2022-11-04T06:00:07.460Z,6.28
2022-11-04T06:02:34.797Z,6.72
2022-11-04T06:05:02.065Z,7.40
2022-11-04T06:07:29.320Z,9.93
2022-11-04T06:09:56.558Z,7.25
2022-11-04T06:12:23.792Z,9.77
2022-11-04T06:14:51.361Z,7.72
2022-11-04T06:17:21.232Z,8.98
2022-11-04T06:19:49.546Z,6.35
2022-11-04T06:22:18.610Z,7.13
2022-11-04T10:25:48.366Z,5.85
2022-11-04T10:28:19.636Z,7.82
2022-11-04T10:30:50.631Z,6.50
2022-11-04T10:33:20.628Z,6.40
2022-11-04T10:35:53.119Z,7.55
2022-11-04T10:38:22.981Z,7.78
2022-11-04T10:40:53.957Z,8.98
2022-11-04T10:43:32.232Z,7.10
2022-11-04T10:46:06.278Z,8.75
2022-11-04T10:49:08.660Z,7.95
2022-11-04T10:51:36.075Z,8.13
2022-11-04T10:54:08.229Z,9.48
2022-11-04T10:56:43.548Z,8.38
2022-11-04T10:59:20.627Z,7.78
2022-11-04T11:01:59.947Z,9.63
2022-11-04T11:04:36.009Z,7.90
2022-11-04T11:07:09.342Z,9.32
2022-11-04T11:09:49.747Z,7.93
2022-11-04T11:12:50.634Z,6.40
2022-11-04T11:15:27.645Z,7.15
2022-11-04T11:18:11.306Z,7.80
2022-11-04T11:20:41.671Z,7.13
2022-11-04T11:23:38.562Z,8.13
2022-11-04T11:26:13.736Z,6.80
2022-11-04T11:28:41.895Z,7.40
2022-11-04T11:31:16.665Z,6.30
2022-11-04T11:33:52.458Z,7.40
2022-11-04T11:36:22.142Z,6.05
2022-11-04T11:38:57.907Z,7.57
2022-11-04T11:41:31.785Z,8.60
2022-11-04T11:44:17.894Z,9.65
2022-11-04T11:46:55.053Z,10.05
2022-11-04T11:49:29.297Z,10.80
2022-11-04T11:52:17.003Z,6.40
2022-11-04T11:54:47.893Z,7.10
2022-11-04T11:57:46.574Z,6.05
2022-11-04T12:00:40.333Z,7.72
2022-11-04T12:03:31.210Z,7.38
2022-11-04T12:09:34.064Z,6.63
2022-11-04T12:12:32.660Z,7.63
2022-11-04T12:15:07.972Z,7.30
2022-11-04T12:17:38.292Z,8.40
2022-11-04T12:20:31.159Z,9.23
2022-11-04T12:23:22.938Z,6.70
2022-11-04T12:26:20.708Z,6.75
2022-11-04T12:29:09.384Z,7.75
2022-11-04T12:32:01.542Z,9.70
2022-11-04T12:35:00.394Z,8.75
2022-11-04T12:37:55.738Z,7.90
2022-11-04T12:40:28.864Z,9.57
2022-11-04T12:43:27.290Z,7.72
2022-11-04T12:45:56.935Z,9.05
2022-11-04T12:48:36.313Z,7.47
2022-11-04T12:51:13.407Z,7.63
2022-11-04T12:53:56.309Z,6.93
2022-11-04T12:56:38.323Z,6.97
2022-11-04T12:59:27.238Z,8.17
2022-11-04T13:02:12.349Z,10.00
2022-11-04T13:04:47.808Z,7.78
2022-11-04T13:07:22.811Z,8.60
2022-11-04T13:09:55.116Z,10.73
2022-11-04T13:12:32.116Z,11.30
2022-11-04T13:15:17.256Z,8.23
2022-11-04T13:17:46.764Z,8.93
2022-11-04T13:20:27.753Z,8.48
2022-11-04T13:23:07.688Z,9.30
2022-11-04T13:25:37.434Z,8.65
2022-11-04T13:28:04.850Z,10.55
2022-11-04T13:30:56.169Z,9.60
2022-11-04T13:33:56.103Z,8.80
2022-11-04T13:36:52.703Z,9.05
2022-11-04T13:39:29.591Z,8.13
2022-11-04T13:42:15.761Z,10.70
2022-11-04T13:44:50.688Z,8.68
2022-11-04T13:47:25.694Z,9.80
2022-11-04T13:49:58.358Z,9.43
2022-11-04T13:52:30.579Z,8.27
2022-11-04T13:55:05.392Z,8.77
2022-11-04T13:57:55.820Z,9.30
2022-11-04T14:00:28.950Z,10.23
2022-11-04T18:12:36.940Z,9.10
2022-11-04T18:15:05.791Z,10.35
2022-11-04T18:17:36.294Z,11.15
2022-11-04T18:20:07.118Z,10.48
2022-11-04T18:25:03.704Z,10.20
2022-11-04T18:27:30.915Z,11.45
2022-11-04T18:29:58.077Z,12.07
2022-11-04T18:32:25.327Z,13.90
2022-11-04T18:34:52.828Z,11.35
2022-11-04T18:37:20.623Z,9.30
2022-11-04T18:39:48.108Z,10.82
2022-11-04T18:42:15.141Z,10.38
2022-11-04T18:44:42.229Z,8.60
2022-11-04T18:47:09.632Z,12.43
2022-11-04T18:49:36.629Z,10.57
2022-11-04T18:52:03.699Z,11.05
2022-11-04T18:54:30.759Z,11.73
2022-11-04T18:56:57.627Z,11.52
2022-11-04T18:59:24.734Z,9.05
2022-11-04T19:01:53.311Z,10.18
2022-11-04T19:04:20.645Z,9.60
2022-11-04T19:06:47.881Z,7.25
2022-11-04T19:12:23.576Z,9.07
2022-11-04T19:14:50.790Z,10.05
2022-11-04T19:17:17.999Z,11.55
2022-11-04T19:19:45.037Z,13.82
2022-11-04T19:22:12.542Z,8.73
2022-11-04T19:24:40.316Z,8.77
2022-11-04T19:27:07.393Z,9.48
2022-11-04T19:29:34.399Z,9.60
2022-11-04T19:32:01.493Z,9.88
2022-11-04T19:34:28.544Z,9.70
2022-11-04T19:36:55.931Z,10.50
2022-11-04T19:39:23.053Z,11.73
2022-11-04T19:42:08.949Z,8.43
2022-11-04T19:44:36.264Z,9.18
2022-11-04T19:47:03.458Z,8.57
2022-11-04T19:49:31.731Z,12.88
2022-11-04T19:51:59.439Z,8.95
2022-11-04T19:54:28.474Z,11.25
2022-11-04T19:56:56.782Z,12.30
2022-11-04T19:59:24.213Z,12.68
2022-11-04T20:01:51.702Z,9.30
2022-11-04T20:04:19.349Z,9.05
2022-11-04T20:06:46.572Z,9.38
2022-11-04T20:09:14.626Z,8.20
2022-11-04T20:12:01.119Z,9.98
2022-11-04T20:14:29.512Z,8.38
2022-11-04T20:16:56.922Z,10.88
2022-11-04T20:19:24.095Z,9.82
2022-11-04T20:21:51.789Z,8.82
2022-11-04T20:24:19.183Z,9.63
2022-11-04T20:26:49.720Z,9.80
2022-11-04T20:29:17.530Z,7.10
2022-11-04T20:31:45.294Z,10.52
2022-11-04T20:34:14.394Z,9.75
2022-11-04T20:36:42.007Z,9.63
2022-11-04T20:39:19.917Z,10.70
2022-11-04T20:41:47.632Z,9.05
2022-11-04T20:44:16.147Z,11.20
2022-11-04T20:46:44.602Z,11.23
2022-11-04T20:49:12.314Z,18.45
2022-11-04T20:51:50.179Z,12.88
2022-11-04T20:54:23.569Z,10.45
2022-11-04T20:56:51.098Z,9.77
2022-11-04T20:59:18.701Z,8.70
2022-11-04T21:01:47.709Z,7.82
2022-11-04T21:04:19.340Z,9.20
2022-11-04T21:06:49.092Z,8.13
2022-11-04T21:09:18.203Z,7.60
2022-11-04T21:11:46.021Z,11.60
2022-11-04T21:14:15.404Z,9.40
2022-11-04T21:16:42.892Z,6.43
2022-11-04T21:19:12.081Z,8.50
2022-11-04T21:21:42.474Z,8.85
2022-11-04T21:24:13.307Z,9.85
2022-11-04T21:26:41.179Z,10.23
2022-11-04T21:29:12.513Z,8.23
2022-11-04T21:31:39.712Z,7.78
2022-11-04T21:34:07.935Z,10.43
2022-11-04T21:36:35.135Z,8.38
2022-11-04T21:39:02.517Z,8.93
2022-11-04T21:41:33.978Z,11.13
2022-11-04T21:44:03.606Z,8.68
2022-11-04T21:46:32.584Z,8.60
2022-11-04T21:49:01.087Z,7.50
2022-11-04T21:51:33.064Z,8.38
2022-11-04T21:54:01.295Z,7.70
2022-11-04T21:56:33.391Z,7.20
2022-11-04T21:59:01.738Z,8.57
2022-11-04T22:01:30.866Z,8.27
2022-11-04T22:04:00.880Z,7.88
2022-11-04T22:06:34.733Z,10.30
2022-11-04T22:09:04.401Z,11.25
2022-11-04T22:11:33.241Z,13.15
2022-11-04T22:14:02.232Z,9.50
2022-11-04T22:16:31.837Z,11.25
2022-11-04T22:19:01.490Z,7.82
2022-11-04T22:21:31.546Z,8.35
2022-11-04T22:23:59.810Z,9.60
2022-11-04T22:26:29.176Z,8.25
2022-11-04T22:28:58.337Z,9.02
2022-11-04T22:31:37.464Z,11.02
2022-11-04T22:34:06.028Z,8.90
2022-11-04T22:36:34.341Z,8.93
2022-11-04T22:39:01.393Z,8.00
2022-11-04T22:41:31.627Z,11.70
2022-11-04T22:43:59.709Z,9.82
2022-11-04T22:46:32.285Z,8.45
2022-11-04T22:51:31.537Z,8.80
2022-11-04T22:54:04.608Z,7.43
2022-11-04T22:56:35.174Z,8.65
2022-11-04T22:59:02.411Z,10.40
2022-11-04T23:01:31.813Z,10.40
2022-11-04T23:03:59.282Z,10.15
2022-11-04T23:06:26.384Z,13.93
2022-11-04T23:08:59.614Z,11.60
2022-11-04T23:11:47.060Z,12.50
2022-11-04T23:14:35.453Z,13.57
2022-11-04T23:17:22.454Z,14.23
2022-11-04T23:19:50.680Z,17.42
2022-11-04T23:22:36.315Z,11.85
2022-11-04T23:25:06.544Z,10.77
2022-11-04T23:27:59.055Z,9.30
2022-11-04T23:30:29.296Z,11.57
2022-11-04T23:33:02.216Z,10.70
2022-11-04T23:35:52.511Z,13.48
2022-11-04T23:38:19.940Z,11.15
2022-11-04T23:41:07.443Z,11.55
2022-11-04T23:43:35.564Z,10.82
2022-11-04T23:46:21.380Z,11.38
2022-11-04T23:49:07.448Z,13.88
2022-11-04T23:51:52.983Z,10.07
2022-11-04T23:54:38.693Z,9.43
2022-11-04T23:57:36.410Z,10.52
